createdAt,value
2022-10-14T00:04:33.547Z,78.32
2022-10-14T00:09:35.010Z,77.94
2022-10-14T00:14:36.423Z,77.86
2022-10-14T00:19:37.856Z,78.19
2022-10-14T00:24:39.292Z,78.66
2022-10-14T00:29:40.684Z,79.10
2022-10-14T00:34:42.125Z,79.17
2022-10-14T00:39:43.524Z,79.05
2022-10-14T00:44:45.835Z,78.63
2022-10-14T00:49:47.659Z,79.09
2022-10-14T00:54:56.808Z,78.69
2022-10-14T01:00:08.741Z,79.46
2022-10-14T01:05:13.226Z,79.27
2022-10-14T01:10:28.163Z,79.25
2022-10-14T01:16:05.246Z,79.25
2022-10-14T01:21:22.633Z,79.75
2022-10-14T01:26:45.682Z,79.31
2022-10-14T01:31:54.674Z,79.28
2022-10-14T01:37:05.408Z,79.26
2022-10-14T01:42:34.958Z,79.62
2022-10-14T01:47:38.442Z,79.71
2022-10-14T01:52:51.968Z,80.16
2022-10-14T01:57:57.360Z,80.06
2022-10-14T02:02:59.630Z,80.14
2022-10-14T02:08:12.033Z,79.98
2022-10-14T02:13:26.990Z,80.32
2022-10-14T02:18:58.455Z,80.89
2022-10-14T02:24:15.682Z,81.03
2022-10-14T02:29:22.626Z,80.58
2022-10-14T02:34:28.078Z,81.07
2022-10-14T02:39:36.059Z,80.29
2022-10-14T02:44:51.934Z,80.57
2022-10-14T02:49:54.265Z,80.53
2022-10-14T02:54:55.844Z,80.99
2022-10-14T02:59:57.462Z,80.72
2022-10-14T03:04:59.673Z,80.14
2022-10-14T03:10:01.335Z,80.40
2022-10-14T03:15:08.414Z,80.13
2022-10-14T03:20:10.656Z,80.31
2022-10-14T03:25:21.251Z,80.10
2022-10-14T03:30:31.508Z,80.42
2022-10-14T03:35:38.913Z,80.23
2022-10-14T03:40:45.309Z,79.80
2022-10-14T03:45:48.047Z,79.76
2022-10-14T03:50:53.004Z,80.69
2022-10-14T03:55:55.008Z,81.43
2022-10-14T04:00:56.655Z,81.67
2022-10-14T04:06:24.075Z,81.67
2022-10-14T04:11:31.196Z,81.48
2022-10-14T04:16:39.028Z,81.75
2022-10-14T04:21:45.440Z,80.85
2022-10-14T04:26:50.210Z,79.55
2022-10-14T04:31:59.398Z,79.12
2022-10-14T04:37:00.971Z,79.26
2022-10-14T04:42:22.912Z,78.71
2022-10-14T04:47:29.391Z,78.71
2022-10-14T04:52:35.402Z,78.31
2022-10-14T04:57:43.109Z,77.45
2022-10-14T05:02:45.209Z,77.42
2022-10-14T05:07:48.681Z,76.90
2022-10-14T05:12:57.018Z,76.38
2022-10-14T05:18:03.226Z,76.75
2022-10-14T05:23:20.944Z,76.55
2022-10-14T05:28:24.536Z,77.14
2022-10-14T05:33:26.148Z,76.55
2022-10-14T05:38:30.736Z,76.63
2022-10-14T05:43:33.009Z,76.01
2022-10-14T05:48:36.850Z,76.08
2022-10-14T05:53:38.949Z,77.31
2022-10-14T05:58:44.607Z,77.10
2022-10-14T06:03:50.159Z,77.24
2022-10-14T06:08:51.687Z,78.21
2022-10-14T06:13:54.685Z,77.77
2022-10-14T06:18:56.286Z,78.14
2022-10-14T06:23:57.875Z,78.93
2022-10-14T06:28:59.356Z,79.47
2022-10-14T06:34:05.047Z,78.25
2022-10-14T06:39:06.461Z,78.31
2022-10-14T06:44:08.523Z,78.76
2022-10-14T06:49:10.043Z,78.37
2022-10-14T06:54:11.466Z,77.88
2022-10-14T06:59:12.875Z,79.03
2022-10-14T07:04:14.320Z,78.98
2022-10-14T07:09:15.739Z,79.84
2022-10-14T07:14:17.207Z,78.94
2022-10-14T07:19:18.738Z,78.69
2022-10-14T07:24:20.249Z,79.11
2022-10-14T07:29:21.663Z,79.02
2022-10-14T07:34:23.083Z,78.38
2022-10-14T07:39:24.519Z,78.36
2022-10-14T07:44:27.331Z,78.43
2022-10-14T07:49:29.013Z,78.45
2022-10-14T07:54:30.794Z,78.27
2022-10-14T07:59:32.282Z,78.52
2022-10-14T08:04:33.750Z,78.92
2022-10-14T08:09:35.771Z,76.51
2022-10-14T08:14:37.372Z,76.96
2022-10-14T08:19:38.928Z,77.42
2022-10-14T08:24:40.368Z,75.80
2022-10-14T08:29:41.873Z,76.85
2022-10-14T08:34:43.285Z,75.45
2022-10-14T08:39:44.672Z,76.25
2022-10-14T08:44:55.267Z,75.12
2022-10-14T08:50:06.287Z,75.89
2022-10-14T08:55:35.401Z,76.72
2022-10-14T09:00:41.187Z,77.09
2022-10-14T09:05:42.772Z,77.42
2022-10-14T09:10:44.807Z,77.27
2022-10-14T09:15:50.236Z,77.60
2022-10-14T09:20:53.528Z,77.73
2022-10-14T09:26:01.546Z,74.64
2022-10-14T09:31:04.638Z,75.95
2022-10-14T09:36:13.256Z,76.37
2022-10-14T09:41:15.860Z,77.48
2022-10-14T09:46:17.720Z,78.53
2022-10-14T09:51:28.054Z,77.41
2022-10-14T09:56:29.397Z,77.27
2022-10-14T10:01:39.767Z,77.27
2022-10-14T10:06:52.521Z,77.30
2022-10-14T10:11:54.383Z,76.27
2022-10-14T10:17:07.932Z,75.83
2022-10-14T10:22:15.579Z,74.65
2022-10-14T10:27:32.910Z,74.20
2022-10-14T10:33:17.873Z,77.47
2022-10-14T10:38:25.904Z,76.23
2022-10-14T10:44:01.105Z,74.62
2022-10-14T10:49:09.543Z,71.92
2022-10-14T10:54:28.237Z,72.06
2022-10-14T11:00:03.909Z,71.71
2022-10-14T11:05:44.118Z,70.37
2022-10-14T11:11:16.373Z,69.82
2022-10-14T11:16:41.167Z,70.77
2022-10-14T11:21:52.650Z,71.93
2022-10-14T11:27:05.118Z,72.35
2022-10-14T11:32:17.558Z,71.58
2022-10-14T11:37:46.350Z,70.36
2022-10-14T11:43:13.792Z,68.77
2022-10-14T11:48:33.571Z,67.51
2022-10-14T11:53:59.158Z,68.59
2022-10-14T11:59:09.335Z,67.67
2022-10-14T12:04:19.103Z,69.38
2022-10-14T12:09:28.048Z,69.57
2022-10-14T12:14:35.758Z,67.73
2022-10-14T12:19:37.482Z,67.12
2022-10-14T12:24:46.824Z,68.42
2022-10-14T12:29:50.725Z,68.26
2022-10-14T12:34:57.774Z,68.48
2022-10-14T12:40:02.110Z,70.47
2022-10-14T12:45:24.574Z,74.00
2022-10-14T12:50:37.428Z,74.67
2022-10-14T12:55:54.182Z,74.70
2022-10-14T13:01:00.406Z,76.66
2022-10-14T13:06:29.591Z,77.04
2022-10-14T13:11:31.008Z,76.18
2022-10-14T13:16:34.759Z,75.83
2022-10-14T13:21:36.585Z,74.02
2022-10-14T13:26:58.832Z,73.96
2022-10-14T13:32:12.371Z,73.74
2022-10-14T13:37:30.309Z,73.43
2022-10-14T13:42:36.241Z,73.50
2022-10-14T13:47:42.005Z,70.28
2022-10-14T13:52:50.351Z,71.64
2022-10-14T13:58:18.551Z,70.65
2022-10-14T14:03:34.413Z,70.04
2022-10-14T14:08:46.445Z,70.41
2022-10-14T14:14:02.010Z,71.41
2022-10-14T14:19:08.808Z,71.81
2022-10-14T14:24:25.239Z,71.87
2022-10-14T14:29:31.253Z,72.28
2022-10-14T14:34:34.448Z,70.88
2022-10-14T14:39:36.516Z,71.34
2022-10-14T14:44:39.119Z,71.37
2022-10-14T14:49:40.783Z,72.42
2022-10-14T14:54:47.002Z,73.13
2022-10-14T14:59:54.356Z,72.32
2022-10-14T15:05:01.141Z,72.21
2022-10-14T15:10:06.364Z,72.76
2022-10-14T15:15:33.176Z,73.13
2022-10-14T15:20:41.945Z,73.20
2022-10-14T15:25:57.154Z,74.66
2022-10-14T15:31:03.044Z,75.37
2022-10-14T15:36:11.510Z,76.07
2022-10-14T15:41:12.929Z,77.21
2022-10-14T15:46:14.340Z,77.71
2022-10-14T15:51:21.163Z,78.16
2022-10-14T15:56:23.001Z,78.98
2022-10-14T16:01:24.610Z,79.46
2022-10-14T16:06:26.003Z,79.51
2022-10-14T16:11:29.630Z,79.59
2022-10-14T16:16:35.977Z,79.98
2022-10-14T16:21:38.359Z,80.32
2022-10-14T16:26:39.783Z,81.72
2022-10-14T16:31:42.000Z,81.90
2022-10-14T16:36:44.521Z,82.72
2022-10-14T16:41:46.306Z,83.73
2022-10-14T16:46:48.359Z,83.78
2022-10-14T16:51:49.764Z,84.34
2022-10-14T16:56:51.210Z,84.13
2022-10-14T17:01:52.693Z,83.88
2022-10-14T17:06:55.051Z,83.65
2022-10-14T17:11:58.664Z,83.75
2022-10-14T17:17:00.360Z,81.97
2022-10-14T17:22:02.181Z,82.48
2022-10-14T17:27:03.834Z,83.26
2022-10-14T17:32:05.234Z,82.62
2022-10-14T17:37:06.669Z,81.89
2022-10-14T17:42:08.105Z,81.95
2022-10-14T17:47:10.130Z,81.97
2022-10-14T17:52:11.536Z,81.39
2022-10-14T17:57:12.948Z,81.17
2022-10-14T18:02:17.520Z,81.50
2022-10-14T18:07:18.957Z,81.56
2022-10-14T18:12:20.381Z,82.07
2022-10-14T18:17:22.113Z,82.13
2022-10-14T18:22:23.653Z,83.86
2022-10-14T18:27:25.613Z,83.62
2022-10-14T18:32:27.102Z,83.22
2022-10-14T18:37:28.504Z,83.30
2022-10-14T18:42:29.907Z,83.44
2022-10-14T18:47:31.313Z,83.51
2022-10-14T18:52:32.744Z,81.85
2022-10-14T18:57:34.130Z,82.36
2022-10-14T19:02:35.534Z,83.09
2022-10-14T19:07:36.927Z,84.55
2022-10-14T19:12:38.306Z,83.72
2022-10-14T19:17:39.783Z,83.93
2022-10-14T19:22:41.196Z,84.42
2022-10-14T19:27:43.450Z,84.37
2022-10-14T19:32:44.877Z,84.56
2022-10-14T19:37:46.273Z,84.24
2022-10-14T19:42:47.691Z,85.02
2022-10-14T19:47:49.108Z,83.15
2022-10-14T19:52:50.506Z,83.17
2022-10-14T19:57:51.924Z,83.84
2022-10-14T20:02:53.315Z,84.23
2022-10-14T20:07:55.115Z,83.55
2022-10-14T20:12:56.561Z,83.71
2022-10-14T20:17:57.948Z,85.17
2022-10-14T20:22:59.422Z,85.78
2022-10-14T20:28:00.887Z,86.29
2022-10-14T20:33:02.262Z,85.90
2022-10-14T20:38:04.428Z,84.46
2022-10-14T20:43:05.826Z,83.96
2022-10-14T20:48:07.750Z,84.45
2022-10-14T20:53:09.157Z,85.23
2022-10-14T20:58:10.586Z,85.10
2022-10-14T21:03:11.979Z,85.57
2022-10-14T21:08:13.375Z,83.50
2022-10-14T21:13:14.792Z,83.93
2022-10-14T21:18:16.198Z,84.23
2022-10-14T21:23:18.210Z,84.23
2022-10-14T21:28:19.666Z,83.20
2022-10-14T21:33:21.122Z,83.90
2022-10-14T21:38:22.515Z,83.19
2022-10-14T21:43:24.319Z,83.31
2022-10-14T21:48:25.712Z,83.59
2022-10-14T21:53:27.131Z,83.26
2022-10-14T21:58:29.132Z,82.45
2022-10-14T22:03:30.676Z,83.23
2022-10-14T22:08:35.416Z,83.11
2022-10-14T22:13:36.789Z,82.68
2022-10-14T22:18:38.166Z,82.54
2022-10-14T22:23:39.629Z,82.44
2022-10-14T22:28:41.742Z,83.27
2022-10-14T22:33:44.033Z,82.61
2022-10-14T22:38:46.498Z,82.47
2022-10-14T22:43:56.209Z,82.50
2022-10-14T22:48:58.477Z,82.37
2022-10-14T22:54:00.032Z,82.80
2022-10-14T22:59:07.097Z,83.83
2022-10-14T23:04:09.733Z,83.48
2022-10-14T23:09:11.137Z,83.31
2022-10-14T23:14:12.544Z,84.70
2022-10-14T23:19:13.936Z,84.49
2022-10-14T23:24:15.334Z,84.92
2022-10-14T23:29:16.739Z,85.05
2022-10-14T23:34:18.250Z,85.62
2022-10-14T23:39:19.634Z,85.70
2022-10-14T23:44:21.024Z,85.67
2022-10-14T23:49:25.909Z,85.43
2022-10-14T23:54:28.037Z,86.21
2022-10-14T23:59:29.417Z,86.71
